Flight Track Log - Related Links

Times and Time Zones

All times are in EDT time to prevent confusion due to time zone crossing. See the THY9 flight status page for this flight to view local times or setup timezone preferences in your user account.

Time Position Orientation Groundspeed Altitude Reporting Facility
EDT Latitude Longitude Course Direction KTS MPH feet Rate Location/Type
Mon 06:28:02 AM 41.2920 28.7860 338° Northwest 292 336 9,400  Level FlightAware ADS-B
Mon 06:29:27 AM 41.3930 28.6990 327° Northwest 335 386 11,700 1,849 Climbing FlightAware ADS-B
Mon 06:32:00 AM 41.6826 28.4802 331° Northwest  Level FlightAware Approximate
Mon 06:33:00 AM 41.7961 28.3938 330° Northwest  Level FlightAware Approximate
Mon 06:34:00 AM 41.9095 28.3072 330° Northwest  Level FlightAware Approximate
Mon 06:34:12 AM 41.7920 28.2400 330° Northwest 423 487 20,800  Level FlightAware ADS-B
Mon 06:34:52 AM 41.8560 28.1590 317° Northwest 428 493 22,100 1,765 Climbing FlightAware ADS-B
Mon 06:35:37 AM 41.9190 28.0800 317° Northwest 438 504 23,300 1,650 Climbing FlightAware ADS-B
Mon 06:36:12 AM 41.9770 28.0110 319° Northwest 437 503 24,300 1,553 Climbing FlightAware ADS-B
Mon 06:37:02 AM 42.0580 27.9390 327° Northwest 440 506 25,500 1,249 Climbing FlightAware ADS-B
Mon 06:39:00 AM 42.2852 27.7780 332° Northwest  Level Estimated
Mon 06:40:00 AM 42.4006 27.6957 332° Northwest  Level Estimated
Mon 06:41:00 AM 42.5159 27.6131 332° Northwest  Level Estimated
Mon 06:42:00 AM 42.6312 27.5301 332° Northwest  Level Estimated
Mon 06:42:22 AM 42.6440 27.4280 332° Northwest 469 540 32,000  Level FlightAware ADS-B
Mon 06:43:32 AM 42.7710 27.3160 327° Northwest 469 540 32,000  Level FlightAware ADS-B
Mon 06:44:37 AM 42.8890 27.2110 327° Northwest 469 540 32,000  Level FlightAware ADS-B
Mon 06:45:32 AM 42.9880 27.1230 327° Northwest 470 541 32,000  Level FlightAware ADS-B
Mon 06:46:12 AM 43.0440 27.0730 327° Northwest 468 539 32,000  Level FlightAware ADS-B
Mon 06:47:02 AM 43.1430 26.9840 327° Northwest 467 537 32,000  Level FlightAware ADS-B
Mon 06:47:42 AM 43.2130 26.9220 327° Northwest 467 537 32,000  Level FlightAware ADS-B
Mon 06:48:27 AM 43.2940 26.8480 326° Northwest 467 537 32,000  Level FlightAware ADS-B
Mon 06:49:22 AM 43.3970 26.7550 327° Northwest 467 537 32,000  Level FlightAware ADS-B
Mon 06:50:17 AM 43.4970 26.6640 327° Northwest 465 535 32,000  Level FlightAware ADS-B
Mon 06:50:57 AM 43.5650 26.6030 327° Northwest 464 534 32,000  Level FlightAware ADS-B
Mon 06:51:57 AM 43.6700 26.5060 326° Northwest 464 534 32,000  Level FlightAware ADS-B
Mon 06:52:37 AM 43.7470 26.4350 326° Northwest 462 532 32,000  Level FlightAware ADS-B
Mon 06:53:22 AM 43.8240 26.3650 327° Northwest 462 532 32,000  Level FlightAware ADS-B
Mon 06:54:02 AM 43.9000 26.2940 326° Northwest 463 533 32,000  Level FlightAware ADS-B
Mon 06:54:37 AM 43.9530 26.2400 324° Northwest 462 532 32,000  Level FlightAware ADS-B
Mon 06:55:27 AM 44.0380 26.1390 320° Northwest 460 529 32,000  Level FlightAware ADS-B
Mon 06:56:07 AM 44.1030 26.0590 319° Northwest 460 529 32,000  Level FlightAware ADS-B
Mon 06:56:52 AM 44.1720 25.9740 319° Northwest 459 528 32,000  Level FlightAware ADS-B
Mon 06:57:32 AM 44.2370 25.8930 318° Northwest 459 528 32,000  Level FlightAware ADS-B
Mon 06:58:12 AM 44.3020 25.8130 319° Northwest 459 528 32,000  Level FlightAware ADS-B
Mon 06:59:22 AM 44.4120 25.6750 318° Northwest 460 529 32,000  Level FlightAware ADS-B
Mon 07:00:07 AM 44.4780 25.5930 318° Northwest 461 531 32,000  Level FlightAware ADS-B
Mon 07:00:47 AM 44.5470 25.5060 318° Northwest 460 529 32,000  Level FlightAware ADS-B
Mon 07:01:32 AM 44.6140 25.4210 318° Northwest 460 529 32,000  Level FlightAware ADS-B
Mon 07:02:07 AM 44.6750 25.3440 318° Northwest 462 532 32,000  Level FlightAware ADS-B
Mon 07:02:52 AM 44.7390 25.2630 318° Northwest 460 529 32,000  Level FlightAware ADS-B
Mon 07:03:37 AM 44.8120 25.1710 318° Northwest 458 527 32,000  Level FlightAware ADS-B
Mon 07:04:12 AM 44.8700 25.0970 318° Northwest 460 529 32,000  Level FlightAware ADS-B
Mon 07:04:52 AM 44.9320 25.0160 317° Northwest 462 532 32,000  Level FlightAware ADS-B
Mon 07:05:57 AM 45.0380 24.8810 318° Northwest 465 535 32,000  Level FlightAware ADS-B
Mon 07:06:42 AM 45.1060 24.7920 317° Northwest 464 534 32,000  Level FlightAware ADS-B
Mon 07:07:22 AM 45.1680 24.7130 318° Northwest 464 534 32,000  Level FlightAware ADS-B
Mon 07:08:07 AM 45.2380 24.6210 317° Northwest 461 531 32,000  Level FlightAware ADS-B
Mon 07:08:47 AM 45.3010 24.5390 318° Northwest 461 531 32,000  Level FlightAware ADS-B
Mon 07:09:27 AM 45.3650 24.4560 318° Northwest 466 536 32,000  Level FlightAware ADS-B
Mon 07:10:12 AM 45.4380 24.3600 317° Northwest 464 534 32,000  Level FlightAware ADS-B
Mon 07:10:47 AM 45.4920 24.2880 317° Northwest 463 533 32,000  Level FlightAware ADS-B
Mon 07:11:32 AM 45.5600 24.1980 317° Northwest 467 537 32,000  Level FlightAware ADS-B
Mon 07:12:17 AM 45.6280 24.1080 317° Northwest 462 532 32,000  Level FlightAware ADS-B
Mon 07:12:57 AM 45.6950 24.0190 317° Northwest 462 532 32,000  Level FlightAware ADS-B
Mon 07:13:32 AM 45.7500 23.9450 317° Northwest 464 534 32,000  Level FlightAware ADS-B
Mon 07:14:22 AM 45.8250 23.8450 317° Northwest 461 531 32,000  Level FlightAware ADS-B
Mon 07:15:02 AM 45.8870 23.7610 317° Northwest 459 528 32,000  Level FlightAware ADS-B
Mon 07:15:37 AM 45.9440 23.6850 317° Northwest 463 533 32,000  Level FlightAware ADS-B
Mon 07:16:27 AM 46.0230 23.5770 317° Northwest 462 532 32,000  Level FlightAware ADS-B
Mon 07:17:02 AM 46.0790 23.5010 317° Northwest 460 529 32,000  Level FlightAware ADS-B
Mon 07:17:57 AM 46.1620 23.3890 317° Northwest 464 534 32,000  Level FlightAware ADS-B
Mon 07:18:47 AM 46.2430 23.2770 316° Northwest 462 532 32,000  Level FlightAware ADS-B
Mon 07:19:27 AM 46.3060 23.1910 317° Northwest 462 532 32,000  Level FlightAware ADS-B
Mon 07:20:12 AM 46.3840 23.1130 325° Northwest 472 543 32,000  Level FlightAware ADS-B
Mon 07:20:52 AM 46.4590 23.0500 330° Northwest 468 539 32,000  Level FlightAware ADS-B
Mon 07:21:27 AM 46.5250 22.9920 329° Northwest 465 535 32,000  Level FlightAware ADS-B
Mon 07:22:32 AM 46.6440 22.8910 330° Northwest 467 537 32,000  Level FlightAware ADS-B
Mon 07:23:27 AM 46.7460 22.8060 330° Northwest 460 529 32,000  Level FlightAware ADS-B
Mon 07:24:32 AM 46.8690 22.7050 331° Northwest 461 531 32,000  Level FlightAware ADS-B
Mon 07:25:17 AM 46.9550 22.6340 331° Northwest 465 535 32,000  Level FlightAware ADS-B
Mon 07:26:02 AM 47.0410 22.5630 331° Northwest 467 537 32,000  Level FlightAware ADS-B
Mon 07:26:42 AM 47.1150 22.5020 331° Northwest 476 548 32,000  Level FlightAware ADS-B
Mon 07:27:22 AM 47.1930 22.4370 330° Northwest 477 549 32,000  Level FlightAware ADS-B
Mon 07:28:07 AM 47.2790 22.3640 330° Northwest 476 548 32,000  Level FlightAware ADS-B
Mon 07:28:47 AM 47.3500 22.3050 331° Northwest 466 536 32,000  Level FlightAware ADS-B
Mon 07:29:32 AM 47.4440 22.2260 330° Northwest 467 537 32,000  Level FlightAware ADS-B
Mon 07:30:12 AM 47.5200 22.1640 331° Northwest 478 550 32,000  Level FlightAware ADS-B
Mon 07:30:57 AM 47.6130 22.1090 338° Northwest 471 542 32,000  Level FlightAware ADS-B
Mon 07:31:37 AM 47.6950 22.0590 338° Northwest 470 541 32,000  Level FlightAware ADS-B
Mon 07:32:17 AM 47.7760 22.0060 336° Northwest 471 542 32,000  Level FlightAware ADS-B
Mon 07:33:02 AM 47.8680 21.9470 337° Northwest 475 547 32,000  Level FlightAware ADS-B
Mon 07:33:42 AM 47.9460 21.8970 337° Northwest 486 559 32,000  Level FlightAware ADS-B
Mon 07:34:22 AM 48.0320 21.8440 338° Northwest 486 559 32,000  Level FlightAware ADS-B
Mon 07:35:07 AM 48.1270 21.7850 337° Northwest 474 545 32,000  Level FlightAware ADS-B
Mon 07:35:47 AM 48.2090 21.7330 337° Northwest 472 543 32,000  Level FlightAware ADS-B
Mon 07:36:32 AM 48.3000 21.6760 337° Northwest 472 543 32,000  Level FlightAware ADS-B
Mon 07:37:12 AM 48.3820 21.6240 337° Northwest 472 543 32,000  Level FlightAware ADS-B
Mon 07:37:52 AM 48.4640 21.5730 338° Northwest 475 547 32,000  Level FlightAware ADS-B
Mon 07:38:37 AM 48.5570 21.5140 337° Northwest 473 544 32,000  Level FlightAware ADS-B
Mon 07:39:17 AM 48.6380 21.4550 334° Northwest 478 550 32,000  Level FlightAware ADS-B
Mon 07:40:02 AM 48.7180 21.3740 326° Northwest 475 547 32,000  Level FlightAware ADS-B
Mon 07:40:42 AM 48.7910 21.2940 324° Northwest 475 547 32,000  Level FlightAware ADS-B
Mon 07:41:22 AM 48.8600 21.2180 324° Northwest 475 547 32,000  Level FlightAware ADS-B
Mon 07:42:07 AM 48.9400 21.1290 324° Northwest 476 548 32,000  Level FlightAware ADS-B
Mon 07:42:47 AM 49.0130 21.0480 324° Northwest 475 547 32,000  Level FlightAware ADS-B
Mon 07:43:32 AM 49.0910 20.9610 324° Northwest 467 537 32,000  Level FlightAware ADS-B
Mon 07:44:12 AM 49.1600 20.8820 323° Northwest 463 533 32,000  Level FlightAware ADS-B
Mon 07:44:57 AM 49.2400 20.7930 324° Northwest 461 531 32,000  Level FlightAware ADS-B
Mon 07:45:37 AM 49.3110 20.7130 324° Northwest 460 529 32,000  Level FlightAware ADS-B
Mon 07:46:12 AM 49.3730 20.6430 324° Northwest 461 531 32,000  Level FlightAware ADS-B
Mon 07:47:42 AM 49.5290 20.4870 327° Northwest 469 540 32,000  Level FlightAware ADS-B
Mon 07:48:52 AM 49.6580 20.3660 329° Northwest 468 539 32,000  Level FlightAware ADS-B
Mon 07:50:17 AM 49.8200 20.2110 328° Northwest 469 540 32,000  Level FlightAware ADS-B
Mon 07:50:57 AM 49.8960 20.1390 329° Northwest 469 540 32,000  Level FlightAware ADS-B
Mon 07:51:42 AM 49.9770 20.0610 328° Northwest 472 543 32,000  Level FlightAware ADS-B
Mon 07:52:22 AM 50.0540 19.9860 328° Northwest 470 541 32,000  Level FlightAware ADS-B
Mon 07:53:02 AM 50.1230 19.9180 328° Northwest 472 543 32,000  Level FlightAware ADS-B
Mon 07:53:47 AM 50.2090 19.8340 328° Northwest 478 550 32,000  Level FlightAware ADS-B
Mon 07:54:27 AM 50.2850 19.7600 328° Northwest 479 551 32,000  Level FlightAware ADS-B
Mon 07:55:12 AM 50.3670 19.6790 328° Northwest 479 551 32,000  Level FlightAware ADS-B
Mon 07:55:52 AM 50.4430 19.6040 328° Northwest 483 556 32,000  Level FlightAware ADS-B
Mon 07:56:37 AM 50.5310 19.5160 328° Northwest 485 558 32,000  Level FlightAware ADS-B
Mon 07:57:17 AM 50.6050 19.4420 328° Northwest 486 559 32,000  Level FlightAware ADS-B
Mon 07:58:02 AM 50.6900 19.3570 328° Northwest 487 560 32,000  Level FlightAware ADS-B
Mon 07:58:42 AM 50.7660 19.2810 328° Northwest 490 564 32,000  Level FlightAware ADS-B
Mon 07:59:27 AM 50.8450 19.2010 327° Northwest 492 566 32,000  Level FlightAware ADS-B
Mon 08:00:07 AM 50.9280 19.1170 327° Northwest 494 568 32,000  Level FlightAware ADS-B
Mon 08:00:47 AM 51.0050 19.0380 327° Northwest 491 565 32,000  Level FlightAware ADS-B
Mon 08:01:32 AM 51.0830 18.9580 327° Northwest 490 564 32,000  Level FlightAware ADS-B
Mon 08:02:12 AM 51.1650 18.8740 327° Northwest 490 564 32,000  Level FlightAware ADS-B
Mon 08:02:57 AM 51.2490 18.7870 327° Northwest 490 564 32,000  Level FlightAware ADS-B
Mon 08:03:37 AM 51.3320 18.7010 327° Northwest 491 565 32,000  Level FlightAware ADS-B
Mon 08:04:17 AM 51.4030 18.6270 327° Northwest 492 566 32,000  Level FlightAware ADS-B
Mon 08:05:02 AM 51.4900 18.5370 327° Northwest 494 568 32,000  Level FlightAware ADS-B
Mon 08:05:42 AM 51.5670 18.4560 327° Northwest 496 571 32,000  Level FlightAware ADS-B
Mon 08:06:27 AM 51.6500 18.3690 327° Northwest 497 572 32,000  Level FlightAware ADS-B
Mon 08:07:07 AM 51.7270 18.2880 327° Northwest 498 573 32,000  Level FlightAware ADS-B
Mon 08:07:47 AM 51.8030 18.2070 327° Northwest 498 573 32,000  Level FlightAware ADS-B
Mon 08:08:32 AM 51.8930 18.1110 327° Northwest 498 573 32,000  Level FlightAware ADS-B
Mon 08:09:12 AM 51.9710 18.0260 326° Northwest 497 572 32,000  Level FlightAware ADS-B
Mon 08:09:52 AM 52.0480 17.9430 326° Northwest 499 574 32,000  Level FlightAware ADS-B
Mon 08:10:47 AM 52.1550 17.8280 327° Northwest 498 573 32,000  Level FlightAware ADS-B
Mon 08:11:32 AM 52.2400 17.7350 326° Northwest 498 573 32,000  Level FlightAware ADS-B
Mon 08:12:12 AM 52.3150 17.6540 327° Northwest 497 572 32,000  Level FlightAware ADS-B
Mon 08:12:57 AM 52.4030 17.5570 326° Northwest 497 572 32,000  Level FlightAware ADS-B
Mon 08:13:37 AM 52.4790 17.4730 326° Northwest 496 571 32,000  Level FlightAware ADS-B
Mon 08:14:17 AM 52.5550 17.3890 326° Northwest 495 570 32,000  Level FlightAware ADS-B
Mon 08:15:02 AM 52.6400 17.2940 326° Northwest 495 570 32,000  Level FlightAware ADS-B
Mon 08:15:42 AM 52.7130 17.2130 326° Northwest 496 571 32,000  Level FlightAware ADS-B
Mon 08:16:27 AM 52.7960 17.1200 326° Northwest 497 572 32,000  Level FlightAware ADS-B
Mon 08:17:07 AM 52.8780 17.0270 326° Northwest 499 574 32,000  Level FlightAware ADS-B
Mon 08:17:47 AM 52.9530 16.9420 326° Northwest 498 573 32,000  Level FlightAware ADS-B
Mon 08:18:32 AM 53.0390 16.8450 326° Northwest 499 574 32,000  Level FlightAware ADS-B
Mon 08:19:12 AM 53.1130 16.7600 325° Northwest 501 577 32,000  Level FlightAware ADS-B
Mon 08:19:57 AM 53.2000 16.6600 325° Northwest 502 578 32,000  Level FlightAware ADS-B
Mon 08:20:37 AM 53.2760 16.5720 325° Northwest 502 578 32,000  Level FlightAware ADS-B
Mon 08:21:17 AM 53.3520 16.4830 325° Northwest 505 581 32,000  Level FlightAware ADS-B
Mon 08:22:02 AM 53.4400 16.3820 326° Northwest 507 583 32,000  Level FlightAware ADS-B
Mon 08:22:42 AM 53.5170 16.2920 325° Northwest 509 586 32,000  Level FlightAware ADS-B
Mon 08:23:27 AM 53.5980 16.1960 325° Northwest 509 586 32,000  Level FlightAware ADS-B
Mon 08:24:07 AM 53.6790 16.1000 325° Northwest 511 588 32,000  Level FlightAware ADS-B
Mon 08:24:47 AM 53.7560 16.0090 325° Northwest 513 590 32,000  Level FlightAware ADS-B
Mon 08:25:32 AM 53.8420 15.9060 325° Northwest 514 592 32,000  Level FlightAware ADS-B
Mon 08:26:12 AM 53.9170 15.8100 323° Northwest 510 587 32,000  Level FlightAware ADS-B
Mon 08:26:57 AM 54.0010 15.6910 320° Northwest 510 587 32,000  Level FlightAware ADS-B
Mon 08:27:37 AM 54.0690 15.5950 320° Northwest 513 590 32,000  Level FlightAware ADS-B
Mon 08:28:17 AM 54.1440 15.4920 321° Northwest 517 595 32,000  Level FlightAware ADS-B
Mon 08:29:02 AM 54.2290 15.3730 321° Northwest 520 598 32,000  Level FlightAware ADS-B
Mon 08:29:42 AM 54.3030 15.2700 321° Northwest 517 595 32,000  Level FlightAware ADS-B
Mon 08:30:22 AM 54.3750 15.1680 320° Northwest 516 594 32,000  Level FlightAware ADS-B
Mon 08:30:52 AM 54.4320 15.0860 320° Northwest 518 596 32,000  Level FlightAware ADS-B
Mon 08:31:32 AM 54.5060 14.9780 320° Northwest 520 598 32,000  Level FlightAware ADS-B
Mon 08:32:17 AM 54.5840 14.8640 320° Northwest 518 596 32,000  Level FlightAware ADS-B
Mon 08:32:57 AM 54.6590 14.7560 320° Northwest 520 598 32,000  Level FlightAware ADS-B
Mon 08:33:42 AM 54.7440 14.6310 320° Northwest 522 601 32,000  Level FlightAware ADS-B
Mon 08:34:22 AM 54.8170 14.5240 320° Northwest 522 601 32,000  Level FlightAware ADS-B
Mon 08:35:07 AM 54.9020 14.3970 319° Northwest 521 600 32,000  Level FlightAware ADS-B
Mon 08:35:47 AM 54.9730 14.2910 319° Northwest 521 600 32,000  Level FlightAware ADS-B
Mon 08:36:27 AM 55.0460 14.1820 319° Northwest 524 603 32,000  Level FlightAware ADS-B
Mon 08:37:12 AM 55.1250 14.0620 319° Northwest 527 606 32,000  Level FlightAware ADS-B
Mon 08:37:52 AM 55.2010 13.9470 319° Northwest 529 609 32,000  Level FlightAware ADS-B
Mon 08:38:32 AM 55.2750 13.8350 319° Northwest 529 609 32,000  Level FlightAware ADS-B
Mon 08:39:17 AM 55.3580 13.7070 319° Northwest 527 606 32,000  Level FlightAware ADS-B
Mon 08:40:02 AM 55.4410 13.5800 319° Northwest 527 606 32,000  Level FlightAware ADS-B
Mon 08:40:42 AM 55.5170 13.4620 319° Northwest 525 604 32,000  Level FlightAware ADS-B
Mon 08:41:22 AM 55.5870 13.3530 319° Northwest 527 606 32,000  Level FlightAware ADS-B
Mon 08:42:07 AM 55.6680 13.2260 319° Northwest 526 605 32,000  Level FlightAware ADS-B
Mon 08:42:47 AM 55.7420 13.1110 319° Northwest 524 603 32,000  Level FlightAware ADS-B
Mon 08:43:27 AM 55.8150 12.9950 318° Northwest 523 602 32,000  Level FlightAware ADS-B
Mon 08:44:12 AM 55.8930 12.8700 318° Northwest 522 601 32,000  Level FlightAware ADS-B
Mon 08:44:52 AM 55.9660 12.7530 318° Northwest 519 597 32,000  Level FlightAware ADS-B
Mon 08:45:37 AM 56.0430 12.6300 318° Northwest 514 592 32,000  Level FlightAware ADS-B
Mon 08:46:17 AM 56.1160 12.5120 318° Northwest 511 588 32,000  Level FlightAware ADS-B
Mon 08:46:57 AM 56.1860 12.3970 318° Northwest 509 586 32,000  Level FlightAware ADS-B
Mon 08:47:42 AM 56.2600 12.2770 318° Northwest 508 585 32,000  Level FlightAware ADS-B
Mon 08:48:22 AM 56.3300 12.1550 316° Northwest 507 583 32,000  Level FlightAware ADS-B
Mon 08:49:02 AM 56.3940 12.0310 313° West 506 582 32,000  Level FlightAware ADS-B
Mon 08:49:47 AM 56.4670 11.8860 312° West 507 583 32,000  Level FlightAware ADS-B
Mon 08:50:27 AM 56.5270 11.7640 312° West 511 588 32,000  Level FlightAware ADS-B
Mon 08:51:12 AM 56.6010 11.6140 312° West 514 592 32,000  Level FlightAware ADS-B
Mon 08:51:52 AM 56.6620 11.4910 312° West 515 593 32,000  Level FlightAware ADS-B
Mon 08:52:32 AM 56.7250 11.3610 311° West 518 596 32,000  Level FlightAware ADS-B
Mon 08:53:17 AM 56.7950 11.2180 312° West 520 598 32,000  Level FlightAware ADS-B
Mon 08:53:57 AM 56.8590 11.0870 312° West 521 600 32,000  Level FlightAware ADS-B
Mon 08:54:42 AM 56.9320 10.9340 311° West 521 600 32,000  Level FlightAware ADS-B
Mon 08:55:27 AM 57.0020 10.7880 311° West 520 598 32,000  Level FlightAware ADS-B
Mon 08:56:07 AM 57.0650 10.6560 311° West 519 597 32,000  Level FlightAware ADS-B
Mon 08:56:47 AM 57.1280 10.5220 311° West 516 594 32,000  Level FlightAware ADS-B
Mon 08:57:32 AM 57.1980 10.3740 311° West 513 590 32,000  Level FlightAware ADS-B
Mon 08:58:12 AM 57.2600 10.2400 311° West 512 589 32,000  Level FlightAware ADS-B
Mon 08:58:57 AM 57.3250 10.1000 311° West 510 587 32,000  Level FlightAware ADS-B
Mon 08:59:37 AM 57.3920 9.9550 311° West 508 585 32,000  Level FlightAware ADS-B
Mon 09:00:12 AM 57.4430 9.8430 310° West 507 583 32,000  Level FlightAware ADS-B
Mon 09:01:02 AM 57.5160 9.6840 311° West 505 581 32,000  Level FlightAware ADS-B
Mon 09:01:42 AM 57.5760 9.5510 310° West 504 580 32,000  Level FlightAware ADS-B
Mon 09:02:22 AM 57.6400 9.4100 310° West 505 581 32,000  Level FlightAware ADS-B
Mon 09:03:07 AM 57.7070 9.2600 310° West 506 582 32,000  Level FlightAware ADS-B
Mon 09:03:47 AM 57.7670 9.1250 310° West 507 583 32,000  Level FlightAware ADS-B
Mon 09:04:27 AM 57.8350 9.0030 316° Northwest 511 588 32,000  Level FlightAware ADS-B
Mon 09:05:12 AM 57.9180 8.8840 323° Northwest 511 588 32,000  Level FlightAware ADS-B
Mon 09:05:52 AM 57.9940 8.7780 324° Northwest 509 586 32,000  Level FlightAware ADS-B
Mon 09:06:37 AM 58.0800 8.6580 324° Northwest 507 583 32,000  Level FlightAware ADS-B
Mon 09:07:17 AM 58.1570 8.5490 323° Northwest 507 583 32,000  Level FlightAware ADS-B
Mon 09:07:57 AM 58.2300 8.4440 323° Northwest 507 583 32,000  Level FlightAware ADS-B
Mon 09:08:42 AM 58.3120 8.3260 323° Northwest 506 582 32,000  Level FlightAware ADS-B
Mon 09:09:27 AM 58.3970 8.2030 323° Northwest 503 579 32,000  Level FlightAware ADS-B
Mon 09:10:07 AM 58.4690 8.0980 323° Northwest 503 579 32,000  Level FlightAware ADS-B
Mon 09:10:47 AM 58.5440 7.9890 323° Northwest 500 575 32,000  Level FlightAware ADS-B
Mon 09:11:32 AM 58.6260 7.8680 322° Northwest 498 573 32,000  Level FlightAware ADS-B
Mon 09:12:12 AM 58.6970 7.7630 322° Northwest 499 574 32,000  Level FlightAware ADS-B
Mon 09:12:52 AM 58.7680 7.6560 322° Northwest 498 573 32,000  Level FlightAware ADS-B
Mon 09:13:37 AM 58.8490 7.5350 322° Northwest 498 573 32,000  Level FlightAware ADS-B
Mon 09:14:17 AM 58.9250 7.4210 322° Northwest 498 573 32,000  Level FlightAware ADS-B
Mon 09:15:02 AM 59.0080 7.2950 322° Northwest 497 572 32,000  Level FlightAware ADS-B
Mon 09:15:42 AM 59.0800 7.1860 322° Northwest 497 572 32,000  Level FlightAware ADS-B
Mon 09:16:27 AM 59.1600 7.0640 322° Northwest 498 573 32,000  Level FlightAware ADS-B
Mon 09:17:07 AM 59.2320 6.9530 322° Northwest 498 573 32,000  Level FlightAware ADS-B
Mon 09:17:47 AM 59.3050 6.8400 322° Northwest 495 570 32,000  Level FlightAware ADS-B
Mon 09:18:32 AM 59.3870 6.7120 322° Northwest 494 568 32,000  Level FlightAware ADS-B
Mon 09:19:12 AM 59.4580 6.6010 322° Northwest 495 570 32,000  Level FlightAware ADS-B
Mon 09:19:57 AM 59.5370 6.4760 321° Northwest 493 567 32,000  Level FlightAware ADS-B
Mon 09:20:37 AM 59.6070 6.3660 322° Northwest 493 567 32,000  Level FlightAware ADS-B
Mon 09:21:22 AM 59.6870 6.2370 321° Northwest 491 565 32,000  Level FlightAware ADS-B
Mon 09:22:02 AM 59.7570 6.1250 321° Northwest 491 565 32,000  Level FlightAware ADS-B
Mon 09:22:42 AM 59.8280 6.0100 321° Northwest 491 565 32,000  Level FlightAware ADS-B
Mon 09:23:37 AM 59.9180 5.8630 321° Northwest 492 566 32,000 -1,268 Level FlightAware ADS-B
Mon 09:23:53 AM 59.9516 5.8021 321° Northwest 480 552 30,500  Descending FlightAware UK
Mon 09:24:22 AM 60.0010 5.7270 321° Northwest 491 565 32,000 1,304 Climbing FlightAware ADS-B
Mon 09:25:02 AM 60.0680 5.6170 321° Northwest 492 566 32,000  Level FlightAware ADS-B
Mon 09:25:47 AM 60.1480 5.4850 321° Northwest 490 564 32,000  Level FlightAware ADS-B
Mon 09:26:22 AM 60.2140 5.3750 320° Northwest 490 564 32,000  Level FlightAware ADS-B
Mon 09:27:07 AM 60.2880 5.2510 320° Northwest 489 563 32,000  Level FlightAware ADS-B
Mon 09:27:52 AM 60.3600 5.1290 320° Northwest 489 563 32,000  Level FlightAware ADS-B
Mon 09:28:32 AM 60.4260 5.0150 320° Northwest 489 563 32,000  Level FlightAware ADS-B
Mon 09:29:17 AM 60.5000 4.8840 319° Northwest 489 563 32,000  Level FlightAware ADS-B
Mon 09:29:57 AM 60.5580 4.7810 319° Northwest 489 563 32,000  Level FlightAware ADS-B
Mon 09:30:37 AM 60.6450 4.6320 320° Northwest 486 559 32,000  Level FlightAware ADS-B
Mon 09:31:22 AM 60.7250 4.4910 319° Northwest 478 550 32,000  Level FlightAware ADS-B
Mon 09:32:02 AM 60.7920 4.3710 319° Northwest 477 549 32,000  Level FlightAware ADS-B
Mon 09:32:47 AM 60.8670 4.2360 319° Northwest 477 549 32,000  Level FlightAware ADS-B
Mon 09:33:27 AM 60.9340 4.1150 319° Northwest 477 549 32,000  Level FlightAware ADS-B
Mon 09:34:07 AM 61.0010 3.9930 319° Northwest 478 550 32,000  Level FlightAware ADS-B
Mon 09:34:42 AM 61.0550 3.8960 319° Northwest 478 550 32,000  Level FlightAware ADS-B
Mon 09:35:32 AM 61.1380 3.7410 318° Northwest 483 556 32,000  Level FlightAware ADS-B
Mon 09:36:17 AM 61.2090 3.6110 319° Northwest 483 556 32,000  Level FlightAware ADS-B
Mon 09:36:57 AM 61.2840 3.4730 319° Northwest 476 548 32,000  Level FlightAware ADS-B
Mon 09:37:37 AM 61.3500 3.3490 318° Northwest 482 555 32,000  Level FlightAware ADS-B
Mon 09:38:22 AM 61.4230 3.2110 318° Northwest 481 554 32,000  Level FlightAware ADS-B
Mon 09:39:02 AM 61.4900 3.0850 318° Northwest 484 557 32,000  Level FlightAware ADS-B
Mon 09:39:42 AM 61.5560 2.9580 318° Northwest 479 551 32,000  Level FlightAware ADS-B
Mon 09:40:27 AM 61.6320 2.8130 318° Northwest 481 554 32,000  Level FlightAware ADS-B
Mon 09:41:07 AM 61.6990 2.6850 318° Northwest 477 549 32,000  Level FlightAware ADS-B
Mon 09:42:07 AM 61.7830 2.5190 317° Northwest 477 549 32,000  Level FlightAware ADS-B
Mon 09:42:47 AM 61.8380 2.4100 317° Northwest 477 549 32,000  Level FlightAware ADS-B
Mon 09:43:32 AM 61.9330 2.2250 318° Northwest 473 544 32,000  Level FlightAware ADS-B
Mon 09:44:12 AM 61.9980 2.0960 317° Northwest 473 544 32,000  Level FlightAware ADS-B
Mon 09:44:52 AM 62.0630 1.9670 317° Northwest 473 544 32,000  Level FlightAware ADS-B
Mon 09:45:37 AM 62.1330 1.8250 317° Northwest 472 543 32,000  Level FlightAware ADS-B
Mon 09:46:17 AM 62.1960 1.6990 317° Northwest 473 544 32,000  Level FlightAware ADS-B
Mon 09:46:57 AM 62.2610 1.5650 316° Northwest 471 542 32,000  Level FlightAware ADS-B
Mon 09:47:37 AM 62.3170 1.4480 316° Northwest 471 542 32,000  Level FlightAware ADS-B
Mon 09:48:17 AM 62.3690 1.3350 315° West 471 542 32,000  Level FlightAware ADS-B
Mon 09:49:07 AM 62.4350 1.1940 315° West 471 542 32,000  Level FlightAware ADS-B
Mon 09:49:47 AM 62.4870 1.0800 315° West 471 542 32,000  Level FlightAware ADS-B
Mon 09:50:27 AM 62.5400 0.9670 316° Northwest 471 542 32,000  Level FlightAware ADS-B
Mon 09:51:07 AM 62.5920 0.8530 315° West 471 542 32,000  Level FlightAware ADS-B
Mon 09:51:52 AM 62.7310 0.5840 318° Northwest 487 560 32,000  Level FlightAware ADS-B
Mon 09:52:32 AM 62.7950 0.4460 315° West 490 564 32,000  Level FlightAware ADS-B
Mon 09:53:17 AM 62.8670 0.2900 315° West 488 562 32,000  Level FlightAware ADS-B
Mon 09:54:02 AM 62.9370 0.1390 316° Northwest 485 558 32,000  Level FlightAware ADS-B
Mon 09:54:42 AM 62.9990 0.0010 315° West 478 550 32,000  Level FlightAware ADS-B
Mon 09:55:27 AM 63.0760 -0.1540 318° Northwest 482 555 32,000  Level FlightAware ADS-B
Mon 09:56:07 AM 63.1410 -0.2820 318° Northwest 479 551 32,000  Level FlightAware ADS-B
Mon 09:56:52 AM 63.2160 -0.4330 318° Northwest 478 550 32,000  Level FlightAware ADS-B
Mon 09:57:32 AM 63.2810 -0.5660 317° Northwest 478 550 32,000  Level FlightAware ADS-B
Mon 09:58:12 AM 63.3420 -0.6920 317° Northwest 479 551 32,000  Level FlightAware ADS-B
Mon 09:58:57 AM 63.4170 -0.8470 317° Northwest 480 552 32,000  Level FlightAware ADS-B
Mon 09:59:37 AM 63.4810 -0.9820 317° Northwest 481 554 32,000  Level FlightAware ADS-B
Mon 10:00:22 AM 63.5530 -1.1310 317° Northwest 479 551 32,000  Level FlightAware ADS-B
Mon 10:01:02 AM 63.6180 -1.2680 317° Northwest 478 550 32,000  Level FlightAware ADS-B
Mon 10:01:42 AM 63.6810 -1.4030 316° Northwest 474 545 32,000  Level FlightAware ADS-B
Mon 10:02:27 AM 63.7550 -1.5600 317° Northwest 473 544 32,000  Level FlightAware ADS-B
Mon 10:03:02 AM 63.8060 -1.6710 316° Northwest 473 544 32,000  Level FlightAware ADS-B
Mon 10:03:47 AM 63.8780 -1.8270 316° Northwest 472 543 32,000  Level FlightAware ADS-B
Mon 10:04:27 AM 63.9350 -1.9520 316° Northwest 471 542 32,000  Level FlightAware ADS-B
Mon 10:05:07 AM 64.0030 -2.1000 316° Northwest 471 542 32,000  Level FlightAware ADS-B
Mon 10:05:52 AM 64.0630 -2.2380 315° West 471 542 32,000  Level FlightAware ADS-B
Mon 10:06:32 AM 64.1160 -2.3580 315° West 471 542 32,000  Level FlightAware ADS-B
Mon 10:07:22 AM 64.1810 -2.5080 315° West 471 542 32,000  Level FlightAware ADS-B
Mon 10:08:02 AM 64.2330 -2.6280 315° West 471 542 32,000  Level FlightAware ADS-B
Mon 10:08:42 AM 64.2860 -2.7490 315° West 471 542 32,000  Level FlightAware ADS-B
Mon 10:09:22 AM 64.3380 -2.8700 315° West 471 542 32,000  Level FlightAware ADS-B
Mon 10:10:02 AM 64.3910 -2.9910 315° West 471 542 32,000  Level FlightAware ADS-B
Mon 10:10:42 AM 64.4430 -3.1120 315° West 471 542 32,000  Level FlightAware ADS-B
Mon 10:11:22 AM 64.4950 -3.2340 315° West 471 542 32,000  Level FlightAware ADS-B
Mon 10:12:12 AM 64.5610 -3.3860 315° West 471 542 32,000  Level FlightAware ADS-B
Mon 10:12:52 AM 64.6130 -3.5080 315° West 471 542 32,000  Level FlightAware ADS-B
Mon 10:13:32 AM 64.6660 -3.6310 315° West 471 542 32,000  Level FlightAware ADS-B
Mon 10:14:12 AM 64.7180 -3.7530 315° West 471 542 32,000  Level FlightAware ADS-B
Mon 10:15:02 AM 64.7830 -3.9070 315° West 471 542 32,000 12 Level FlightAware ADS-B
Mon 10:17:00 AM 64.9332 -4.3968 306° West  Level Estimated
Mon 10:18:00 AM 65.0089 -4.6479 306° West  Level Estimated
Mon 10:19:00 AM 65.0842 -4.9005 305° West  Level Estimated
Mon 10:20:00 AM 65.1590 -5.1545 305° West  Level Estimated
Mon 10:21:00 AM 65.2335 -5.4099 305° West  Level Estimated
Mon 10:22:00 AM 65.3075 -5.6668 305° West  Level Estimated
Mon 10:23:00 AM 65.3811 -5.9251 304° West  Level Estimated
Mon 10:24:00 AM 65.4542 -6.1849 304° West  Level Estimated
Mon 10:25:00 AM 65.5268 -6.4461 304° West  Level Estimated
Mon 10:26:00 AM 65.5991 -6.7087 304° West  Level Estimated
Mon 10:27:00 AM 65.6708 -6.9729 303° West  Level Estimated
Mon 10:28:00 AM 65.7421 -7.2385 303° West  Level Estimated
Mon 10:29:00 AM 65.8130 -7.5055 303° West  Level Estimated
Mon 10:30:00 AM 65.8834 -7.7740 303° West  Level Estimated
Mon 10:31:00 AM 65.9533 -8.0440 303° West  Level Estimated
Mon 10:32:00 AM 66.0227 -8.3155 302° West  Level Estimated
Mon 10:33:00 AM 66.0917 -8.5885 302° West  Level Estimated
Mon 10:34:00 AM 66.1601 -8.8629 302° West  Level Estimated
Mon 10:35:00 AM 66.2281 -9.1388 302° West  Level Estimated
Mon 10:36:00 AM 66.2956 -9.4162 301° West  Level Estimated
Mon 10:37:00 AM 66.3626 -9.6951 301° West  Level Estimated
Mon 10:38:00 AM 66.4290 -9.9755 301° West  Level Estimated
Mon 10:39:00 AM 66.4950 -10.2573 301° West  Level Estimated
Mon 10:40:00 AM 66.5605 -10.5407 300° West  Level Estimated
Mon 10:41:00 AM 66.6255 -10.8255 300° West  Level Estimated
Mon 10:42:00 AM 66.6899 -11.1119 300° West  Level Estimated
Mon 10:43:00 AM 66.7538 -11.3997 299° West  Level Estimated
Mon 10:44:00 AM 66.8172 -11.6890 299° West  Level Estimated
Mon 10:45:00 AM 66.8801 -11.9798 299° West  Level Estimated
Mon 10:46:00 AM 66.9424 -12.2722 299° West  Level Estimated
Mon 10:47:00 AM 67.0042 -12.5660 298° West  Level Estimated
Mon 10:48:00 AM 67.0654 -12.8612 298° West  Level Estimated
Mon 10:49:00 AM 67.1261 -13.1580 298° West  Level Estimated
Mon 10:50:00 AM 67.1862 -13.4563 298° West  Level Estimated
Mon 10:51:00 AM 67.2458 -13.7560 297° West  Level Estimated
Mon 10:52:00 AM 67.3048 -14.0573 297° West  Level Estimated
Mon 10:53:00 AM 67.3632 -14.3600 297° West  Level Estimated
Mon 10:54:00 AM 67.4211 -14.6642 296° West  Level Estimated
Mon 10:55:00 AM 67.4784 -14.9698 296° West  Level Estimated
Mon 10:56:00 AM 67.5351 -15.2770 296° West  Level Estimated
Mon 10:57:00 AM 67.5913 -15.5856 296° West  Level Estimated
Mon 10:58:00 AM 67.6468 -15.8956 295° West  Level Estimated
Mon 10:59:00 AM 67.7018 -16.2072 295° West  Level Estimated
Mon 11:00:00 AM 67.7561 -16.5201 295° West  Level Estimated
Mon 11:01:00 AM 67.8099 -16.8346 294° West  Level Estimated
Mon 11:02:00 AM 67.8630 -17.1504 294° West  Level Estimated
Mon 11:03:00 AM 67.9156 -17.4677 294° West  Level Estimated
Mon 11:04:00 AM 67.9675 -17.7864 294° West  Level Estimated
Mon 11:05:00 AM 68.0188 -18.1066 293° West  Level Estimated
Mon 11:06:00 AM 68.0695 -18.4282 293° West  Level Estimated
Mon 11:07:00 AM 68.1195 -18.7511 293° West  Level Estimated
Mon 11:08:00 AM 68.1690 -19.0755 292° West  Level Estimated
Mon 11:09:00 AM 68.2177 -19.4013 292° West  Level Estimated
Mon 11:10:00 AM 68.2659 -19.7284 292° West  Level Estimated
Mon 11:11:00 AM 68.3134 -20.0569 292° West  Level Estimated
Mon 11:12:00 AM 68.3602 -20.3868 291° West  Level Estimated
Mon 11:13:00 AM 68.4064 -20.7180 291° West  Level Estimated
Mon 11:14:00 AM 68.4520 -21.0506 291° West  Level Estimated
Mon 11:15:00 AM 68.4968 -21.3845 290° West  Level Estimated
Mon 11:16:00 AM 68.5410 -21.7198 290° West  Level Estimated
Mon 11:17:00 AM 68.5846 -22.0563 290° West  Level Estimated
Mon 11:18:00 AM 68.6274 -22.3941 289° West  Level Estimated
Mon 11:19:00 AM 68.6696 -22.7332 289° West  Level Estimated
Mon 11:20:00 AM 68.7111 -23.0736 289° West  Level Estimated
Mon 11:21:00 AM 68.7519 -23.4153 288° West  Level Estimated
Mon 11:22:00 AM 68.7921 -23.7582 288° West  Level Estimated
Mon 11:23:00 AM 68.8315 -24.1023 288° West  Level Estimated
Mon 11:24:00 AM 68.8702 -24.4476 287° West  Level Estimated
Mon 11:25:00 AM 68.9082 -24.7941 287° West  Level Estimated
Mon 11:26:00 AM 68.9456 -25.1419 287° West  Level Estimated
Mon 11:27:00 AM 68.9822 -25.4907 286° West  Level Estimated
Mon 11:28:00 AM 69.0181 -25.8408 286° West  Level Estimated
Mon 11:29:00 AM 69.0533 -26.1919 286° West  Level Estimated
Mon 11:30:00 AM 69.0877 -26.5442 285° West  Level Estimated
Mon 11:31:00 AM 69.1215 -26.8976 285° West  Level Estimated
Mon 11:32:00 AM 69.1545 -27.2521 285° West  Level Estimated
Mon 11:33:00 AM 69.1867 -27.6076 284° West  Level Estimated
Mon 11:34:00 AM 69.2183 -27.9642 284° West  Level Estimated
Mon 11:35:00 AM 69.2491 -28.3218 284° West  Level Estimated
Mon 11:36:00 AM 69.2791 -28.6803 283° West  Level Estimated
Mon 11:37:00 AM 69.3085 -29.0399 283° West  Level Estimated
Mon 11:38:00 AM 69.3370 -29.4005 283° West  Level Estimated
Mon 11:39:00 AM 69.3649 -29.7620 282° West  Level Estimated
Mon 11:40:00 AM 69.3919 -30.1244 282° West  Level Estimated
Mon 11:41:00 AM 69.4182 -30.4877 282° West  Level Estimated
Mon 11:42:00 AM 69.4438 -30.8519 281° West  Level Estimated
Mon 11:43:00 AM 69.4686 -31.2169 281° West  Level Estimated
Mon 11:44:00 AM 69.4926 -31.5828 281° West  Level Estimated
Mon 11:45:00 AM 69.5158 -31.9494 280° West  Level Estimated
Mon 11:46:00 AM 69.5383 -32.3169 280° West  Level Estimated
Mon 11:47:00 AM 69.5600 -32.6851 280° West  Level Estimated
Mon 11:48:00 AM 69.5810 -33.0541 279° West  Level Estimated
Mon 11:49:00 AM 69.6011 -33.4238 279° West  Level Estimated
Mon 11:50:00 AM 69.6205 -33.7941 279° West  Level Estimated
Mon 11:51:00 AM 69.6391 -34.1651 278° West  Level Estimated
Mon 11:52:00 AM 69.6569 -34.5368 278° West  Level Estimated
Mon 11:53:00 AM 69.6739 -34.9090 278° West  Level Estimated
Mon 11:54:00 AM 69.6901 -35.2819 277° West  Level Estimated
Mon 11:55:00 AM 69.7056 -35.6553 277° West  Level Estimated
Mon 11:56:00 AM 69.7202 -36.0292 277° West  Level Estimated
Mon 11:57:00 AM 69.7340 -36.4036 276° West  Level Estimated
Mon 11:58:00 AM 69.7471 -36.7786 276° West  Level Estimated
Mon 11:59:00 AM 69.7594 -37.1539 276° West  Level Estimated
Mon 12:00:00 PM 69.7708 -37.5297 275° West  Level Estimated
Mon 12:01:00 PM 69.7815 -37.9059 275° West  Level Estimated
Mon 12:02:00 PM 69.7913 -38.2824 275° West  Level Estimated
Mon 12:03:00 PM 69.8004 -38.6593 274° West  Level Estimated
Mon 12:04:00 PM 69.8086 -39.0365 274° West  Level Estimated
Mon 12:05:00 PM 69.8161 -39.4140 273° West  Level Estimated
Mon 12:06:00 PM 69.8227 -39.7917 273° West  Level Estimated
Mon 12:07:00 PM 69.8285 -40.1696 273° West  Level Estimated
Mon 12:08:00 PM 69.8336 -40.5478 272° West  Level Estimated
Mon 12:09:00 PM 69.8378 -40.9261 272° West  Level Estimated
Mon 12:10:00 PM 69.8412 -41.3045 272° West  Level Estimated
Mon 12:11:00 PM 69.8438 -41.6831 271° West  Level Estimated
Mon 12:12:00 PM 69.8456 -42.0617 271° West  Level Estimated
Mon 12:13:00 PM 69.8465 -42.4404 271° West  Level Estimated
Mon 12:14:00 PM 69.8467 -42.8191 270° West  Level Estimated
Mon 12:15:00 PM 69.8461 -43.1978 270° West  Level Estimated
Mon 12:16:00 PM 69.8446 -43.5764 270° West  Level Estimated
Mon 12:17:00 PM 69.8424 -43.9550 269° West  Level Estimated
Mon 12:18:00 PM 69.8393 -44.3335 269° West  Level Estimated
Mon 12:19:00 PM 69.8354 -44.7119 268° West  Level Estimated
Mon 12:20:00 PM 69.8307 -45.0901 268° West  Level Estimated
Mon 12:21:00 PM 69.8252 -45.4681 268° West  Level Estimated
Mon 12:22:00 PM 69.8189 -45.8459 267° West  Level Estimated
Mon 12:23:00 PM 69.8118 -46.2235 267° West  Level Estimated
Mon 12:24:00 PM 69.8039 -46.6008 267° West  Level Estimated
Mon 12:25:00 PM 69.7952 -46.9778 266° West  Level Estimated
Mon 12:26:00 PM 69.7857 -47.3545 266° West  Level Estimated
Mon 12:27:00 PM 69.7754 -47.7309 266° West  Level Estimated
Mon 12:28:00 PM 69.7642 -48.1068 265° West  Level Estimated
Mon 12:29:00 PM 69.7523 -48.4823 265° West  Level Estimated
Mon 12:30:00 PM 69.7396 -48.8574 265° West  Level Estimated
Mon 12:31:00 PM 69.7261 -49.2321 264° West  Level Estimated
Mon 12:32:00 PM 69.7118 -49.6062 264° West  Level Estimated
Mon 12:33:00 PM 69.6967 -49.9799 264° West  Level Estimated
Mon 12:34:00 PM 69.6808 -50.3530 263° West  Level Estimated
Mon 12:35:00 PM 69.6641 -50.7255 263° West  Level Estimated
Mon 12:36:00 PM 69.6466 -51.0974 262° West  Level Estimated
Mon 12:37:00 PM 69.6283 -51.4687 262° West  Level Estimated
Mon 12:38:00 PM 69.6093 -51.8393 262° West  Level Estimated
Mon 12:39:00 PM 69.5894 -52.2092 261° West  Level Estimated
Mon 12:40:00 PM 69.5688 -52.5785 261° West  Level Estimated
Mon 12:41:00 PM 69.5475 -52.9470 261° West  Level Estimated
Mon 12:42:00 PM 69.5253 -53.3148 260° West  Level Estimated
Mon 12:43:00 PM 69.5024 -53.6818 260° West  Level Estimated
Mon 12:44:00 PM 69.4787 -54.0480 260° West  Level Estimated
Mon 12:45:00 PM 69.4542 -54.4134 259° West  Level Estimated
Mon 12:46:00 PM 69.4290 -54.7780 259° West  Level Estimated
Mon 12:47:00 PM 69.4030 -55.1416 259° West  Level Estimated
Mon 12:48:00 PM 69.3762 -55.5044 258° West  Level Estimated
Mon 12:49:00 PM 69.3487 -55.8663 258° West  Level Estimated
Mon 12:50:00 PM 69.3205 -56.2272 258° West  Level Estimated
Mon 12:51:00 PM 69.2915 -56.5872 257° West  Level Estimated
Mon 12:52:00 PM 69.2617 -56.9462 257° West  Level Estimated
Mon 12:53:00 PM 69.2312 -57.3042 257° West  Level Estimated
Mon 12:54:00 PM 69.2000 -57.6612 256° West  Level Estimated
Mon 12:55:00 PM 69.1680 -58.0172 256° West  Level Estimated
Mon 12:56:00 PM 69.1353 -58.3721 256° West  Level Estimated
Mon 12:57:00 PM 69.1019 -58.7259 255° West  Level Estimated
Mon 12:58:00 PM 69.0677 -59.0787 255° West  Level Estimated
Mon 12:59:00 PM 69.0328 -59.4303 255° West  Level Estimated
Mon 01:00:00 PM 68.9972 -59.7808 254° West  Level Estimated
Mon 01:01:00 PM 68.9609 -60.1302 254° West  Level Estimated
Mon 01:02:00 PM 68.9239 -60.4784 254° West  Level Estimated
Mon 01:03:00 PM 68.8861 -60.8254 253° West  Level Estimated
Mon 01:04:00 PM 68.8477 -61.1713 253° West  Level Estimated
Mon 01:05:00 PM 68.8085 -61.5159 253° West  Level Estimated
Mon 01:06:00 PM 68.7687 -61.8593 252° West  Level Estimated
Mon 01:07:00 PM 68.7282 -62.2015 252° West  Level Estimated
Mon 01:08:00 PM 68.6870 -62.5424 252° West  Level Estimated
Mon 01:09:00 PM 68.6451 -62.8820 251° West  Level Estimated
Mon 01:10:00 PM 68.6025 -63.2204 251° West  Level Estimated
Mon 01:11:00 PM 68.5592 -63.5575 251° West  Level Estimated
Mon 01:12:00 PM 68.5138 -63.9042 250° West  Level Estimated
Mon 01:13:00 PM 68.4678 -64.2495 250° West  Level Estimated
Mon 01:14:00 PM 68.4210 -64.5933 250° West  Level Estimated
Mon 01:15:00 PM 68.3735 -64.9358 250° West  Level Estimated
Mon 01:16:00 PM 68.3253 -65.2768 249° West  Level Estimated
Mon 01:17:00 PM 68.2764 -65.6163 249° West  Level Estimated
Mon 01:18:00 PM 68.2268 -65.9545 249° West  Level Estimated
Mon 01:19:00 PM 68.1766 -66.2911 248° West  Level Estimated
Mon 01:20:00 PM 68.1256 -66.6262 248° West  Level Estimated
Mon 01:21:00 PM 68.0740 -66.9599 248° West  Level Estimated
Mon 01:22:00 PM 68.0217 -67.2921 247° West  Level Estimated
Mon 01:23:00 PM 67.9688 -67.6227 247° West  Level Estimated
Mon 01:24:00 PM 67.9152 -67.9518 247° West  Level Estimated
Mon 01:25:00 PM 67.8609 -68.2794 246° West  Level Estimated
Mon 01:26:00 PM 67.8060 -68.6055 246° West  Level Estimated
Mon 01:27:00 PM 67.7504 -68.9301 246° West  Level Estimated
Mon 01:28:00 PM 67.6942 -69.2531 245° Southwest  Level Estimated
Mon 01:29:00 PM 67.6374 -69.5745 245° Southwest  Level Estimated
Mon 01:30:00 PM 67.5799 -69.8944 245° Southwest  Level Estimated
Mon 01:31:00 PM 67.5218 -70.2127 245° Southwest  Level Estimated
Mon 01:32:00 PM 67.4631 -70.5295 244° Southwest  Level Estimated
Mon 01:33:00 PM 67.4038 -70.8447 244° Southwest  Level Estimated
Mon 01:34:00 PM 67.3438 -71.1583 244° Southwest  Level Estimated
Mon 01:35:00 PM 67.2832 -71.4704 243° Southwest  Level Estimated
Mon 01:36:00 PM 67.2221 -71.7808 243° Southwest  Level Estimated
Mon 01:37:00 PM 67.1603 -72.0897 243° Southwest  Level Estimated
Mon 01:38:00 PM 67.0980 -72.3970 243° Southwest  Level Estimated
Mon 01:39:00 PM 67.0350 -72.7028 242° Southwest  Level Estimated
Mon 01:40:00 PM 66.9715 -73.0069 242° Southwest  Level Estimated
Mon 01:41:00 PM 66.9074 -73.3094 242° Southwest  Level Estimated
Mon 01:42:00 PM 66.8428 -73.6104 241° Southwest  Level Estimated
Mon 01:43:00 PM 66.7775 -73.9097 241° Southwest  Level Estimated
Mon 01:44:00 PM 66.7117 -74.2075 241° Southwest  Level Estimated
Mon 01:45:00 PM 66.6453 -74.5037 241° Southwest  Level Estimated
Mon 01:46:00 PM 66.5784 -74.7982 240° Southwest  Level Estimated
Mon 01:47:00 PM 66.5110 -75.0912 240° Southwest  Level Estimated
Mon 01:48:00 PM 66.4429 -75.3826 240° Southwest  Level Estimated
Mon 01:49:00 PM 66.3744 -75.6724 240° Southwest  Level Estimated
Mon 01:50:00 PM 66.3053 -75.9607 239° Southwest  Level Estimated
Mon 01:51:00 PM 66.2357 -76.2473 239° Southwest  Level Estimated
Mon 01:52:00 PM 66.1656 -76.5324 239° Southwest  Level Estimated
Mon 01:53:00 PM 66.0949 -76.8158 238° Southwest  Level Estimated
Mon 01:54:00 PM 66.0237 -77.0977 238° Southwest  Level Estimated
Mon 01:55:00 PM 65.9520 -77.3781 238° Southwest  Level Estimated
Mon 01:56:00 PM 65.8798 -77.6568 238° Southwest  Level Estimated
Mon 01:57:00 PM 65.8071 -77.9340 237° Southwest  Level Estimated
Mon 01:58:00 PM 65.7339 -78.2096 237° Southwest  Level Estimated
Mon 01:59:00 PM 65.6602 -78.4837 237° Southwest  Level Estimated
Mon 02:00:00 PM 65.5861 -78.7561 237° Southwest  Level Estimated
Mon 02:01:00 PM 65.5114 -79.0271 236° Southwest  Level Estimated
Mon 02:02:00 PM 65.4362 -79.2965 236° Southwest  Level Estimated
Mon 02:03:00 PM 65.3606 -79.5643 236° Southwest  Level Estimated
Mon 02:04:00 PM 65.2845 -79.8306 236° Southwest  Level Estimated
Mon 02:05:00 PM 65.2079 -80.0954 235° Southwest  Level Estimated
Mon 02:06:00 PM 65.1309 -80.3586 235° Southwest  Level Estimated
Mon 02:07:00 PM 65.0534 -80.6203 235° Southwest  Level Estimated
Mon 02:08:00 PM 64.9755 -80.8804 235° Southwest  Level Estimated
Mon 02:09:00 PM 64.8971 -81.1391 235° Southwest  Level Estimated
Mon 02:10:00 PM 64.8183 -81.3963 234° Southwest  Level Estimated
Mon 02:11:00 PM 64.7390 -81.6519 234° Southwest  Level Estimated
Mon 02:12:00 PM 64.6592 -81.9061 234° Southwest  Level Estimated
Mon 02:13:00 PM 64.5791 -82.1587 234° Southwest  Level Estimated
Mon 02:14:00 PM 64.4985 -82.4099 233° Southwest  Level Estimated
Mon 02:15:00 PM 64.4175 -82.6596 233° Southwest  Level Estimated
Mon 02:16:00 PM 64.3361 -82.9078 233° Southwest  Level Estimated
Mon 02:17:00 PM 64.2542 -83.1545 233° Southwest  Level Estimated
Mon 02:18:00 PM 64.1720 -83.3998 232° Southwest  Level Estimated
Mon 02:19:00 PM 64.0893 -83.6436 232° Southwest  Level Estimated
Mon 02:20:00 PM 64.0062 -83.8860 232° Southwest  Level Estimated
Mon 02:21:00 PM 63.9228 -84.1269 232° Southwest  Level Estimated
Mon 02:22:00 PM 63.8389 -84.3664 232° Southwest  Level Estimated
Mon 02:23:00 PM 63.7546 -84.6045 231° Southwest  Level Estimated
Mon 02:24:00 PM 63.6700 -84.8412 231° Southwest  Level Estimated
Mon 02:25:00 PM 63.5849 -85.0764 231° Southwest  Level Estimated
Mon 02:26:00 PM 63.4995 -85.3103 231° Southwest  Level Estimated
Mon 02:27:00 PM 63.4137 -85.5427 231° Southwest  Level Estimated
Mon 02:28:00 PM 63.3275 -85.7738 230° Southwest  Level Estimated
Mon 02:29:00 PM 63.2410 -86.0034 230° Southwest  Level Estimated
Mon 02:30:00 PM 63.1541 -86.2318 230° Southwest  Level Estimated
Mon 02:31:00 PM 63.0668 -86.4587 230° Southwest  Level Estimated
Mon 02:32:00 PM 62.9792 -86.6842 230° Southwest  Level Estimated
Mon 02:33:00 PM 62.8912 -86.9085 229° Southwest  Level Estimated
Mon 02:34:00 PM 62.8028 -87.1313 229° Southwest  Level Estimated
Mon 02:35:00 PM 62.7141 -87.3529 229° Southwest  Level Estimated
Mon 02:36:00 PM 62.6251 -87.5731 229° Southwest  Level Estimated
Mon 02:37:00 PM 62.5357 -87.7920 229° Southwest  Level Estimated
Mon 02:38:00 PM 62.4459 -88.0096 228° Southwest  Level Estimated
Mon 02:39:00 PM 62.3559 -88.2258 228° Southwest  Level Estimated
Mon 02:40:00 PM 62.2655 -88.4408 228° Southwest  Level Estimated
Mon 02:41:00 PM 62.1747 -88.6545 228° Southwest  Level Estimated
Mon 02:42:00 PM 62.0837 -88.8669 228° Southwest  Level Estimated
Mon 02:43:00 PM 61.9923 -89.0780 227° Southwest  Level Estimated
Mon 02:44:00 PM 61.9006 -89.2879 227° Southwest  Level Estimated
Mon 02:45:00 PM 61.8086 -89.4965 227° Southwest  Level Estimated
Mon 02:46:00 PM 61.7162 -89.7039 227° Southwest  Level Estimated
Mon 02:47:00 PM 61.6236 -89.9100 227° Southwest  Level Estimated
Mon 02:48:00 PM 61.5306 -90.1149 226° Southwest  Level Estimated
Mon 02:49:00 PM 61.4374 -90.3186 226° Southwest  Level Estimated
Mon 02:50:00 PM 61.3438 -90.5210 226° Southwest  Level Estimated
Mon 02:51:00 PM 61.2499 -90.7223 226° Southwest  Level Estimated
Mon 02:52:00 PM 61.1558 -90.9223 226° Southwest  Level Estimated
Mon 02:53:00 PM 61.0613 -91.1211 226° Southwest  Level Estimated
Mon 02:54:00 PM 60.9666 -91.3188 225° Southwest  Level Estimated
Mon 02:55:00 PM 60.8716 -91.5153 225° Southwest  Level Estimated
Mon 02:56:00 PM 60.7762 -91.7106 225° Southwest  Level Estimated
Mon 02:57:00 PM 60.6806 -91.9048 225° Southwest  Level Estimated
Mon 02:58:00 PM 60.5848 -92.0978 225° Southwest  Level Estimated
Mon 02:59:00 PM 60.4886 -92.2897 225° Southwest  Level Estimated
Mon 03:00:00 PM 60.3922 -92.4804 224° Southwest  Level Estimated
Mon 03:01:00 PM 60.2955 -92.6700 224° Southwest  Level Estimated
Mon 03:02:00 PM 60.1985 -92.8585 224° Southwest  Level Estimated
Mon 03:03:00 PM 60.1013 -93.0459 224° Southwest  Level Estimated
Mon 03:04:00 PM 60.0038 -93.2321 224° Southwest  Level Estimated
Mon 03:05:00 PM 59.9060 -93.4173 224° Southwest  Level Estimated
Mon 03:06:00 PM 59.8080 -93.6014 223° Southwest  Level Estimated
Mon 03:07:00 PM 59.7097 -93.7844 223° Southwest  Level Estimated
Mon 03:08:00 PM 59.6112 -93.9663 223° Southwest  Level Estimated
Mon 03:09:00 PM 59.5124 -94.1472 223° Southwest  Level Estimated
Mon 03:10:00 PM 59.4134 -94.3270 223° Southwest  Level Estimated
Mon 03:11:00 PM 59.3172 -94.5002 223° Southwest  Level Estimated
Mon 03:12:00 PM 59.2207 -94.6725 222° Southwest  Level Estimated
Mon 03:13:00 PM 59.1241 -94.8439 222° Southwest  Level Estimated
Mon 03:14:00 PM 59.0272 -95.0142 222° Southwest  Level Estimated
Mon 03:15:00 PM 58.9301 -95.1836 222° Southwest  Level Estimated
Mon 03:16:00 PM 58.8327 -95.3521 222° Southwest  Level Estimated
Mon 03:17:00 PM 58.7352 -95.5196 222° Southwest  Level Estimated
Mon 03:18:00 PM 58.6374 -95.6862 222° Southwest  Level Estimated
Mon 03:19:00 PM 58.5394 -95.8518 221° Southwest  Level Estimated
Mon 03:20:00 PM 58.4412 -96.0165 221° Southwest  Level Estimated
Mon 03:21:00 PM 58.3428 -96.1803 221° Southwest  Level Estimated
Mon 03:22:00 PM 58.2442 -96.3432 221° Southwest  Level Estimated
Mon 03:22:47 PM 60.4167 -99.8333 220° Southwest 470 541 35,800  Level Edmonton Center
Mon 03:23:00 PM 58.1454 -96.5052 221° Southwest  Level Estimated
Mon 03:23:47 PM 60.2833 -99.9167 197° South 480 552 36,000  Level Edmonton Center
Mon 03:24:00 PM 58.0463 -96.6663 221° Southwest  Level Estimated
Mon 03:24:47 PM 60.1667 -100.0000 200° South 470 541 36,000  Level Edmonton Center
Mon 03:25:00 PM 57.9471 -96.8264 221° Southwest  Level Estimated
Mon 03:26:00 PM 57.8477 -96.9858 220° Southwest  Level Estimated
Mon 03:26:00 PM 60.0240 -100.1845 213° Southwest  Level Estimated
Mon 03:26:42 PM 59.9333 -100.2500 213° Southwest 470 541 36,000  Level Winnipeg Center
Mon 03:27:00 PM 57.7480 -97.1442 220° Southwest  Level Estimated
Mon 03:27:42 PM 59.8167 -100.3833 210° Southwest 470 541 36,000  Level Winnipeg Center
Mon 03:28:00 PM 57.6482 -97.3018 220° Southwest  Level Estimated
Mon 03:28:47 PM 59.7000 -100.4500 196° South 470 541 36,000  Level Edmonton Center
Mon 03:29:47 PM 59.5667 -100.5333 198° South 470 541 36,000  Level Edmonton Center
Mon 03:30:47 PM 59.4500 -100.6500 207° Southwest 460 529 36,000  Level Edmonton Center
Mon 03:33:00 PM 59.3068 -100.8289 213° Southwest  Level Estimated
Mon 03:33:47 PM 59.1000 -100.9667 213° Southwest 450 518 36,000  Level Edmonton Center
Mon 03:34:47 PM 58.9833 -101.0333 196° South 460 529 36,000  Level Edmonton Center
Mon 03:36:42 PM 58.7667 -101.2833 211° Southwest 470 541 36,000  Level Winnipeg Center
Mon 03:37:47 PM 58.6167 -101.3333 190° South 460 529 36,000  Level Edmonton Center
Mon 03:38:47 PM 58.5000 -101.4500 208° Southwest 460 529 36,000  Level Edmonton Center
Mon 03:40:42 PM 58.2833 -101.6667 208° Southwest 470 541 36,000  Level Winnipeg Center
Mon 03:41:42 PM 58.1500 -101.7500 198° South 470 541 36,000  Level Winnipeg Center
Mon 03:42:47 PM 58.0167 -101.8167 195° South 460 529 36,000  Level Edmonton Center
Mon 03:44:42 PM 57.8000 -102.0500 210° Southwest 470 541 36,000  Level Winnipeg Center
Mon 03:45:47 PM 57.6500 -102.1000 190° South 460 529 36,000  Level Edmonton Center
Mon 03:47:47 PM 57.4167 -102.2833 203° Southwest 460 529 36,000  Level Edmonton Center
Mon 03:48:47 PM 57.3000 -102.3500 197° South 450 518 36,000  Level Edmonton Center
Mon 03:50:47 PM 57.0667 -102.5333 203° Southwest 460 529 36,000  Level Edmonton Center
Mon 03:51:47 PM 56.9500 -102.6333 205° Southwest 450 518 36,000  Level Edmonton Center
Mon 03:52:47 PM 56.8167 -102.7333 202° Southwest 450 518 36,000  Level Edmonton Center
Mon 03:53:47 PM 56.7000 -102.8000 197° South 450 518 36,000  Level Edmonton Center
Mon 03:55:00 PM 56.5574 -102.9597 212° Southwest  Level Estimated
Mon 03:55:42 PM 56.4833 -103.0000 212° Southwest 460 529 36,000  Level Winnipeg Center
Mon 03:57:47 PM 56.2333 -103.1333 197° South 450 518 36,000  Level Edmonton Center
Mon 03:58:42 PM 56.1167 -103.2333 206° Southwest 460 529 36,000  Level Winnipeg Center
Mon 04:00:47 PM 55.8667 -103.3833 199° South 450 518 36,000  Level Edmonton Center
Mon 04:01:47 PM 55.7500 -103.4500 198° South 460 529 36,000  Level Edmonton Center
Mon 04:03:00 PM 55.6164 -103.5954 212° Southwest  Level Estimated
Mon 04:03:47 PM 55.5000 -103.6500 212° Southwest 460 529 36,000  Level Edmonton Center
Mon 04:04:42 PM 55.4000 -103.7500 210° Southwest 470 541 36,000  Level Winnipeg Center
Mon 04:05:47 PM 55.2500 -103.8000 191° South 460 529 36,000  Level Edmonton Center
Mon 04:06:42 PM 55.1500 -103.9167 214° Southwest 470 541 36,000  Level Winnipeg Center
Mon 04:08:47 PM 54.9000 -104.0500 197° South 460 529 36,000  Level Edmonton Center
Mon 04:09:47 PM 54.7833 -104.1667 210° Southwest 460 529 36,000  Level Edmonton Center
Mon 04:10:42 PM 54.6833 -104.2667 210° Southwest 460 529 36,000  Level Winnipeg Center
Mon 04:11:42 PM 54.5833 -104.4000 218° Southwest 460 529 36,000  Level Winnipeg Center
Mon 04:12:42 PM 54.4667 -104.4833 203° Southwest 460 529 36,000  Level Winnipeg Center
Mon 04:13:47 PM 54.3333 -104.5500 196° South 460 529 36,000  Level Edmonton Center
Mon 04:14:47 PM 54.2167 -104.6500 207° Southwest 460 529 36,000  Level Edmonton Center
Mon 04:15:47 PM 54.1000 -104.7667 210° Southwest 460 529 36,000  Level Edmonton Center
Mon 04:16:47 PM 53.9667 -104.8500 200° South 460 529 36,000  Level Edmonton Center
Mon 04:17:47 PM 53.8500 -104.9667 211° Southwest 460 529 36,000  Level Edmonton Center
Mon 04:18:47 PM 53.7333 -105.0500 203° Southwest 460 529 36,000  Level Edmonton Center
Mon 04:19:47 PM 53.6333 -105.1333 206° Southwest 460 529 36,000  Level Edmonton Center
Mon 04:20:47 PM 53.5000 -105.2500 208° Southwest 470 541 36,000  Level Edmonton Center
Mon 04:21:47 PM 53.4000 -105.3333 206° Southwest 470 541 36,000  Level Edmonton Center
Mon 04:22:42 PM 53.3000 -105.4667 219° Southwest 470 541 36,000  Level Winnipeg Center
Mon 04:24:47 PM 53.0333 -105.6333 201° Southwest 470 541 36,000  Level Edmonton Center
Mon 04:25:47 PM 52.9000 -105.7167 201° Southwest 470 541 36,000  Level Edmonton Center
Mon 04:26:47 PM 52.7833 -105.8333 211° Southwest 470 541 36,000  Level Edmonton Center
Mon 04:27:42 PM 52.6833 -105.9333 211° Southwest 480 552 36,000  Level Winnipeg Center
Mon 04:29:47 PM 52.4333 -106.1000 202° Southwest 480 552 36,000  Level Edmonton Center
Mon 04:30:42 PM 52.3333 -106.2167 216° Southwest 480 552 36,000  Level Winnipeg Center
Mon 04:36:17 PM 51.7010 -106.6790 216° Southwest 490 564 36,000  Level FlightAware ADS-B
Mon 04:37:02 PM 51.6020 -106.7530 205° Southwest 490 564 36,000  Level FlightAware ADS-B
Mon 04:37:42 PM 51.5210 -106.8130 205° Southwest 489 563 36,000  Level FlightAware ADS-B
Mon 04:38:42 PM 51.4060 -106.8970 205° Southwest 490 564 36,000  Level FlightAware ADS-B
Mon 04:39:22 PM 51.3280 -106.9530 204° Southwest 490 564 36,000  Level FlightAware ADS-B
Mon 04:40:07 PM 51.2480 -107.0130 205° Southwest 489 563 36,000  Level FlightAware ADS-B
Mon 04:40:47 PM 51.1610 -107.0750 204° Southwest 489 563 36,000  Level FlightAware ADS-B
Mon 04:41:42 PM 51.0410 -107.1630 205° Southwest 491 565 36,000  Level FlightAware ADS-B
Mon 04:42:22 PM 50.9530 -107.2270 205° Southwest 491 565 36,000  Level FlightAware ADS-B
Mon 04:43:07 PM 50.8560 -107.2960 204° Southwest 494 568 36,000  Level FlightAware ADS-B
Mon 04:43:47 PM 50.7690 -107.3580 204° Southwest 495 570 36,000  Level FlightAware ADS-B
Mon 04:44:27 PM 50.6880 -107.4160 204° Southwest 495 570 36,000  Level FlightAware ADS-B
Mon 04:45:17 PM 50.5760 -107.4950 204° Southwest 496 571 36,000  Level FlightAware ADS-B
Mon 04:45:57 PM 50.4990 -107.5490 204° Southwest 496 571 36,000  Level FlightAware ADS-B
Mon 04:46:37 PM 50.4050 -107.6150 204° Southwest 496 571 36,000  Level FlightAware ADS-B
Mon 04:47:22 PM 50.3210 -107.6770 205° Southwest 495 570 36,000  Level FlightAware ADS-B
Mon 04:48:12 PM 50.2320 -107.7730 215° Southwest 493 567 36,000  Level FlightAware ADS-B
Mon 04:48:52 PM 50.1700 -107.8440 216° Southwest 493 567 36,000  Level FlightAware ADS-B
Mon 04:49:32 PM 50.1070 -107.9150 216° Southwest 493 567 36,000  Level FlightAware ADS-B
Mon 04:50:22 PM 50.0280 -108.0040 216° Southwest 493 567 36,000  Level FlightAware ADS-B
Mon 04:51:02 PM 49.9660 -108.0750 216° Southwest 493 567 36,000  Level FlightAware ADS-B
Mon 04:51:42 PM 49.9030 -108.1460 216° Southwest 493 567 36,000  Level FlightAware ADS-B
Mon 04:52:32 PM 49.8240 -108.2340 216° Southwest 493 567 36,000  Level FlightAware ADS-B
Mon 04:53:12 PM 49.7620 -108.3050 217° Southwest 493 567 36,000  Level FlightAware ADS-B
Mon 04:53:52 PM 49.6990 -108.3750 216° Southwest 493 567 36,000  Level FlightAware ADS-B
Mon 04:54:32 PM 49.6360 -108.4460 216° Southwest 493 567 36,000  Level FlightAware ADS-B
Mon 04:55:12 PM 49.5740 -108.5160 216° Southwest 493 567 36,000  Level FlightAware ADS-B
Mon 04:56:02 PM 49.4950 -108.6040 216° Southwest 493 567 36,000  Level FlightAware ADS-B
Mon 04:56:42 PM 49.4320 -108.6740 216° Southwest 493 567 36,000  Level FlightAware ADS-B
Mon 04:57:22 PM 49.3700 -108.7440 216° Southwest 493 567 36,000  Level FlightAware ADS-B
Mon 04:57:52 PM 49.2100 -109.1810 241° Southwest 36,000  Level FlightAware ADS-B
Mon 04:57:57 PM 49.2010 -109.1920 219° Southwest 490 564 36,000  Level FlightAware ADS-B
Mon 04:58:47 PM 49.1140 -109.3080 221° Southwest 490 564 36,000  Level FlightAware ADS-B
Mon 04:59:27 PM 49.0520 -109.3900 221° Southwest 490 564 36,000  Level FlightAware ADS-B
Mon 05:00:07 PM 48.9930 -109.4680 221° Southwest 490 564 36,000  Level FlightAware ADS-B
Mon 05:01:07 PM 48.8760 -109.6210 221° Southwest 490 564 36,000  Level FlightAware ADS-B
Mon 05:01:47 PM 48.8080 -109.7090 220° Southwest 491 565 36,000  Level FlightAware ADS-B
Mon 05:02:22 PM 48.7540 -109.7800 221° Southwest 491 565 36,000  Level FlightAware ADS-B
Mon 05:03:12 PM 48.6810 -109.8760 221° Southwest 491 565 36,000  Level FlightAware ADS-B
Mon 05:03:52 PM 48.6230 -109.9530 221° Southwest 491 565 36,000  Level FlightAware ADS-B
Mon 05:04:32 PM 48.5650 -110.0290 221° Southwest 491 565 36,000  Level FlightAware ADS-B
Mon 05:05:12 PM 48.5060 -110.1060 221° Southwest 491 565 36,000  Level FlightAware ADS-B
Mon 05:06:02 PM 48.4340 -110.2010 221° Southwest 491 565 36,000  Level FlightAware ADS-B
Mon 05:06:42 PM 48.3750 -110.2780 221° Southwest 491 565 36,000  Level FlightAware ADS-B
Mon 05:07:22 PM 48.3170 -110.3540 221° Southwest 491 565 36,000  Level FlightAware ADS-B
Mon 05:08:02 PM 48.2590 -110.4300 221° Southwest 491 565 36,000  Level FlightAware ADS-B
Mon 05:08:52 PM 48.1860 -110.5250 221° Southwest 491 565 36,000  Level FlightAware ADS-B
Mon 05:09:32 PM 48.1270 -110.6010 221° Southwest 491 565 36,000  Level FlightAware ADS-B
Mon 05:10:12 PM 48.0690 -110.6770 221° Southwest 491 565 36,000  Level FlightAware ADS-B
Mon 05:10:52 PM 48.0110 -110.7530 221° Southwest 491 565 36,000  Level FlightAware ADS-B
Mon 05:11:32 PM 47.9530 -110.8280 221° Southwest 491 565 36,000  Level FlightAware ADS-B
Mon 05:11:47 PM 47.7167 -111.0500 221° Southwest 490 564 36,000  Level Edmonton Center
Mon 05:12:47 PM 47.6000 -111.1833 218° Southwest 500 575 36,000  Level Edmonton Center
Mon 05:13:47 PM 47.5167 -111.3000 223° Southwest 490 564 36,000  Level Edmonton Center
Mon 05:14:42 PM 47.4000 -111.4667 224° Southwest 500 575 36,000  Level Winnipeg Center
Mon 05:16:00 PM 47.2762 -111.5916 218° Southwest  Level FlightAware Approximate
Mon 05:16:54 PM 47.2100 -111.6914 218° Southwest 498 573 36,000  Level Salt Lake Center
Mon 05:19:00 PM 46.9938 -111.9358 218° Southwest  Level FlightAware Approximate
Mon 05:19:59 PM 46.8797 -112.0692 218° Southwest 506 582 36,000  Level Salt Lake Center
Mon 05:21:00 PM 46.7744 -112.1856 217° Southwest  Level FlightAware Approximate
Mon 05:22:02 PM 46.6358 -112.3439 217° Southwest 505 581 36,000  Level Salt Lake Center
Mon 05:23:04 PM 46.5244 -112.4675 217° Southwest 505 581 36,000  Level Salt Lake Center
Mon 05:25:07 PM 46.2903 -112.7258 217° Southwest 509 586 36,000  Level Salt Lake Center
Mon 05:27:10 PM 46.0675 -112.9706 217° Southwest 506 582 36,000  Level Salt Lake Center
Mon 05:28:12 PM 45.9569 -113.0903 217° Southwest 501 577 36,000  Level Salt Lake Center
Mon 05:29:13 PM 45.8453 -113.2103 217° Southwest 502 578 36,000  Level Salt Lake Center
Mon 05:31:00 PM 45.6596 -113.4088 217° Southwest  Level FlightAware Approximate
Mon 05:32:18 PM 45.4936 -113.5853 217° Southwest 490 564 36,000  Level Salt Lake Center
Mon 05:34:00 PM 45.3159 -113.7721 216° Southwest  Level FlightAware Approximate
Mon 05:35:23 PM 45.1678 -113.9294 216° Southwest 489 563 36,000  Level Salt Lake Center
Mon 05:36:25 PM 45.0525 -114.0500 216° Southwest 486 559 36,000  Level Salt Lake Center
Mon 05:38:00 PM 44.8839 -114.2163 215° Southwest  Level FlightAware Approximate
Mon 05:39:30 PM 44.6989 -114.4061 215° Southwest 490 564 36,000  Level Salt Lake Center
Mon 05:41:00 PM 44.5370 -114.5586 214° Southwest  Level FlightAware Approximate
Mon 05:42:35 PM 44.3639 -114.7397 215° Southwest 486 559 36,000  Level Salt Lake Center
Mon 05:43:37 PM 44.2572 -114.8439 215° Southwest 487 560 36,000  Level Salt Lake Center
Mon 05:45:00 PM 44.1097 -114.9864 215° Southwest  Level FlightAware Approximate
Mon 05:45:40 PM 44.0250 -115.0669 215° Southwest 491 565 36,000  Level Salt Lake Center
Mon 05:46:42 PM 43.9208 -115.1689 215° Southwest 479 551 36,000  Level Salt Lake Center
Mon 05:48:00 PM 43.7897 -115.2814 215° Southwest  Level FlightAware Approximate
Mon 05:48:00 PM 43.7818 -115.3013 215° Southwest  Level FlightAware Approximate
Mon 05:48:45 PM 43.6925 -115.3886 215° Southwest 480 552 36,000  Level Salt Lake Center
Mon 05:49:47 PM 43.5692 -115.5044 214° Southwest 480 552 36,000  Level Salt Lake Center
Mon 05:50:49 PM 43.4647 -115.6033 215° Southwest 475 547 36,000  Level Salt Lake Center
Mon 05:51:50 PM 43.3619 -115.7003 214° Southwest 468 539 36,000  Level Salt Lake Center
Mon 05:52:52 PM 43.2408 -115.8133 214° Southwest 470 541 36,000  Level Salt Lake Center
Mon 05:53:54 PM 43.1375 -115.9100 214° Southwest 468 539 36,000  Level Salt Lake Center
Mon 05:54:55 PM 43.0153 -116.0219 214° Southwest 473 544 36,000  Level Salt Lake Center
Mon 05:55:57 PM 42.9131 -116.1158 214° Southwest 464 534 36,000  Level Salt Lake Center
Mon 05:56:59 PM 42.7919 -116.2269 214° Southwest 468 539 36,000  Level Salt Lake Center
Mon 05:58:00 PM 42.6889 -116.3217 214° Southwest 469 540 36,000  Level Salt Lake Center
Mon 05:59:02 PM 42.5847 -116.4172 214° Southwest 471 542 36,000  Level Salt Lake Center
Mon 06:01:05 PM 42.3578 -116.6214 214° Southwest 470 541 36,000  Level Salt Lake Center
Mon 06:02:07 PM 42.2339 -116.7331 214° Southwest 471 542 36,000  Level Salt Lake Center
Mon 06:03:09 PM 42.1286 -116.8283 214° Southwest 478 550 36,000  Level Salt Lake Center
Mon 06:04:10 PM 42.0242 -116.9211 213° Southwest 471 542 36,000  Level Salt Lake Center
Mon 06:05:12 PM 41.9011 -117.0306 214° Southwest 475 547 36,000  Level Salt Lake Center
Mon 06:07:00 PM 41.7869 -117.1296 213° Southwest  Level FlightAware Approximate
Mon 06:07:15 PM 41.6728 -117.2344 213° Southwest 476 548 36,000  Level Salt Lake Center
Mon 06:08:17 PM 41.5647 -117.3269 213° Southwest 480 552 36,000  Level Salt Lake Center
Mon 06:09:18 PM 41.4394 -117.4364 213° Southwest 482 555 36,000  Level Salt Lake Center
Mon 06:11:21 PM 41.2244 -117.6219 213° Southwest 482 555 36,000  Level Salt Lake Center
Mon 06:13:05 PM 41.0256 -117.7944 213° Southwest 483 556 36,000  Level Oakland Center
Mon 06:14:07 PM 40.8983 -117.9017 213° Southwest 485 558 36,000  Level Oakland Center
Mon 06:15:08 PM 40.7903 -117.9942 213° Southwest 486 559 36,000  Level Oakland Center
Mon 06:16:09 PM 40.6828 -118.0856 213° Southwest 483 556 36,000  Level Oakland Center
Mon 06:18:11 PM 40.4464 -118.2847 213° Southwest 488 562 36,000  Level Oakland Center
Mon 06:18:33 PM 40.4108 -118.3131 211° Southwest 488 562 36,000  Level Salt Lake Center
Mon 06:19:12 PM 40.3331 -118.3786 213° Southwest 485 558 36,000  Level Oakland Center
Mon 06:20:14 PM 40.2181 -118.4736 212° Southwest 488 562 36,000  Level Oakland Center
Mon 06:21:15 PM 40.1050 -118.5678 213° Southwest 484 557 36,000  Level Oakland Center
Mon 06:22:16 PM 39.9686 -118.6797 212° Southwest 484 557 36,000  Level Oakland Center
Mon 06:24:19 PM 39.7322 -118.8503 209° Southwest 497 572 36,000  Level Oakland Center
Mon 06:25:19 PM 39.6044 -118.8886 193° South 480 552 36,000  Level Oakland Center
Mon 06:26:21 PM 39.4781 -118.9247 192° South 477 549 36,000 195 Level Oakland Center
Mon 06:27:22 PM 39.3297 -118.9708 194° South 501 577 36,400 492 Climbing Oakland Center
Mon 06:28:23 PM 39.2008 -119.0050 192° South 514 592 37,000 81 Climbing Oakland Center
Mon 06:34:47 PM 38.3800 -119.2420 192° South 475 547 37,000  Level FlightAware ADS-B
Mon 06:35:32 PM 38.2850 -119.2690 193° South 474 545 37,000  Level FlightAware ADS-B
Mon 06:36:12 PM 38.1990 -119.2930 192° South 473 544 37,000  Level FlightAware ADS-B
Mon 06:36:52 PM 38.1150 -119.3170 193° South 471 542 37,000  Level FlightAware ADS-B
Mon 06:37:32 PM 38.0310 -119.3400 192° South 468 539 37,000  Level FlightAware ADS-B
Mon 06:38:07 PM 37.9580 -119.3600 192° South 468 539 37,000  Level FlightAware ADS-B
Mon 06:39:02 PM 37.8430 -119.3920 192° South 469 540 37,000  Level FlightAware ADS-B
Mon 06:39:52 PM 37.7330 -119.4230 193° South 469 540 37,000  Level FlightAware ADS-B
Mon 06:40:32 PM 37.6480 -119.4460 192° South 469 540 37,000  Level FlightAware ADS-B
Mon 06:41:12 PM 37.5610 -119.4700 192° South 469 540 37,000  Level FlightAware ADS-B
Mon 06:41:57 PM 37.4680 -119.4960 193° South 469 540 37,000  Level FlightAware ADS-B
Mon 06:42:37 PM 37.3800 -119.5200 192° South 473 544 37,000  Level FlightAware ADS-B
Mon 06:43:22 PM 37.2860 -119.5460 192° South 471 542 37,000  Level FlightAware ADS-B
Mon 06:44:02 PM 37.1990 -119.5700 192° South 470 541 37,000  Level FlightAware ADS-B
Mon 06:44:42 PM 37.1140 -119.5910 191° South 470 541 37,000  Level FlightAware ADS-B
Mon 06:45:27 PM 37.0150 -119.5980 183° South 472 543 37,000  Level FlightAware ADS-B
Mon 06:46:07 PM 36.9310 -119.6000 181° South 471 542 37,000  Level FlightAware ADS-B
Mon 06:46:52 PM 36.8300 -119.6020 181° South 473 544 37,000  Level FlightAware ADS-B
Mon 06:47:32 PM 36.7430 -119.6040 181° South 473 544 37,000  Level FlightAware ADS-B
Mon 06:48:17 PM 36.6430 -119.6070 181° South 474 545 37,000  Level FlightAware ADS-B
Mon 06:48:57 PM 36.5550 -119.6090 181° South 476 548 37,000  Level FlightAware ADS-B
Mon 06:49:37 PM 36.4710 -119.6110 181° South 475 547 37,000  Level FlightAware ADS-B
Mon 06:50:17 PM 36.3830 -119.6140 182° South 472 543 37,000  Level FlightAware ADS-B
Mon 06:51:02 PM 36.2830 -119.6160 181° South 469 540 37,000  Level FlightAware ADS-B
Mon 06:51:42 PM 36.1970 -119.6180 181° South 468 539 37,000  Level FlightAware ADS-B
Mon 06:52:27 PM 36.0990 -119.6210 181° South 469 540 37,000  Level FlightAware ADS-B
Mon 06:53:07 PM 36.0140 -119.6230 181° South 470 541 37,000  Level FlightAware ADS-B
Mon 06:53:52 PM 35.9200 -119.6250 181° South 470 541 37,000 -212 Level FlightAware ADS-B
Mon 06:54:32 PM 35.8270 -119.6270 181° South 468 539 36,700 -1,020 Descending FlightAware ADS-B
Mon 06:55:32 PM 35.6970 -119.6210 178° South 478 550 35,300 -1,320 Descending FlightAware ADS-B
Mon 06:56:12 PM 35.6180 -119.6030 170° South 481 554 34,500 -1,200 Descending FlightAware ADS-B
Mon 06:56:52 PM 35.5220 -119.5800 169° South 481 554 33,700 -918 Descending FlightAware ADS-B
Mon 06:57:37 PM 35.4270 -119.5530 167° South 473 544 33,200 -847 Descending FlightAware ADS-B
Mon 06:58:17 PM 35.3420 -119.5270 166° South 461 531 32,500 -1,125 Descending FlightAware ADS-B
Mon 06:58:57 PM 35.2580 -119.4970 164° South 462 532 31,700 -750 Descending FlightAware ADS-B
Mon 06:59:37 PM 35.1890 -119.4530 152° Southeast 467 537 31,500 -150 Descending FlightAware ADS-B
Mon 07:00:17 PM 35.1240 -119.4110 152° Southeast 467 537 31,500 -2,682 Level FlightAware ADS-B
Mon 07:01:02 PM 35.0190 -119.3470 153° Southeast 474 545 27,700 -3,000 Descending FlightAware ADS-B
Mon 07:01:47 PM 34.9380 -119.2980 154° Southeast 472 543 27,000 -2,118 Descending FlightAware ADS-B
Mon 07:02:27 PM 34.8570 -119.2510 155° Southeast 453 521 24,700 -2,850 Descending FlightAware ADS-B
Mon 07:03:07 PM 34.7790 -119.2050 154° Southeast 440 506 23,200 -2,118 Descending FlightAware ADS-B
Mon 07:03:52 PM 34.6990 -119.1580 154° Southeast 428 493 21,700 -1,933 Descending FlightAware ADS-B
Mon 07:04:37 PM 34.6260 -119.1070 150° Southeast 425 489 20,300 -1,050 Descending FlightAware ADS-B
Mon 07:05:12 PM 34.5750 -119.0650 146° Southeast 425 489 20,300  Level FlightAware ADS-B
Mon 07:05:52 PM 34.5200 -119.0200 146° Southeast 425 489 20,300  Level FlightAware ADS-B
Mon 07:06:42 PM 34.4500 -118.9630 146° Southeast 425 489 20,300  Level FlightAware ADS-B
Mon 07:07:22 PM 34.3950 -118.9180 146° Southeast 425 489 20,300  Level FlightAware ADS-B
Mon 07:08:02 PM 34.3390 -118.8720 146° Southeast 425 489 20,300 -4,800 Level FlightAware ADS-B
Mon 07:08:57 PM 34.2220 -118.8260 162° South 363 418 12,700 -4,980 Descending FlightAware ADS-B
Mon 07:09:42 PM 34.1520 -118.8060 167° South 326 375 12,000 -1,059 Descending FlightAware ADS-B
Mon 07:10:22 PM 34.0940 -118.7850 163° South 324 373 11,200 -1,114 Descending FlightAware ADS-B
Mon 07:10:52 PM 34.0560 -118.7630 154° Southeast 309 356 10,700 -1,067 Descending FlightAware ADS-B
Mon 07:11:07 PM 34.0420 -118.7420 129° Southeast 308 354 10,400 -1,200 Descending FlightAware ADS-B
Mon 07:11:17 PM 34.0360 -118.7250 113° Southeast 306 352 10,200 -600 Descending FlightAware ADS-B
Mon 07:11:47 PM 34.0300 -118.6740 98° East 290 334 10,000 -300 Descending FlightAware ADS-B
Mon 07:12:17 PM 34.0260 -118.6310 96° East 286 329 9,900 -1,100 Descending FlightAware ADS-B
Mon 07:12:47 PM 34.0220 -118.5800 95° East 281 323 8,900 -1,800 Descending FlightAware ADS-B
Mon 07:12:57 PM 34.0210 -118.5700 97° East 280 322 8,700 -1,350 Descending FlightAware ADS-B
Mon 07:13:27 PM 34.0160 -118.5180 97° East 281 323 8,000 -1,200 Descending FlightAware ADS-B
Mon 07:13:57 PM 34.0120 -118.4760 97° East 275 316 7,500 -545 Descending FlightAware ADS-B
Mon 07:14:22 PM 34.0090 -118.4380 95° East 275 316 7,500 -873 Level FlightAware ADS-B
Mon 07:14:52 PM 34.0170 -118.3950 77° East 257 296 6,700 -1,292 Descending FlightAware ADS-B
Mon 07:15:27 PM 34.0210 -118.3550 83° East 262 302 6,100 -1,114 Descending FlightAware ADS-B
Mon 07:16:02 PM 34.0270 -118.2980 83° East 220 253 5,400 -1,000 Descending FlightAware ADS-B
Mon 07:16:27 PM 34.0300 -118.2690 83° East 203 234 5,100 -873 Descending FlightAware ADS-B
Mon 07:16:57 PM 34.0350 -118.2340 80° East 197 227 4,600 -1,091 Descending FlightAware ADS-B
Mon 07:17:22 PM 34.0380 -118.2060 83° East 200 230 4,100 -655 Descending FlightAware ADS-B
Mon 07:17:52 PM 34.0300 -118.1770 108° East 190 219 4,000 -133 Descending FlightAware ADS-B
Mon 07:18:07 PM 34.0180 -118.1720 161° South 191 220 4,000 -436 Level FlightAware ADS-B
Mon 07:18:47 PM 33.9850 -118.1820 194° South 196 226 3,600 -771 Descending FlightAware ADS-B
Mon 07:19:17 PM 33.9710 -118.2090 238° Southwest 198 228 3,100 -982 Descending FlightAware ADS-B
Mon 07:19:42 PM 33.9670 -118.2350 259° West 199 229 2,700 -960 Descending FlightAware ADS-B
Mon 07:20:07 PM 33.9640 -118.2630 263° West 196 226 2,300 -988 Descending FlightAware ADS-B
Mon 07:21:07 PM 33.9580 -118.3270 264° West 179 206 1,300 -415 Descending FlightAware ADS-B
Mon 07:21:47 PM 33.9620 -118.2820 84° East 2,100 86 Climbing FlightAware ADS-B
Mon 07:22:17 PM 33.9580 -118.3220 263° West 181 208 1,400 -831 Descending FlightAware ADS-B
Mon 07:22:52 PM 33.9540 -118.3600 263° West 181 208 1,200 -1,444 Descending FlightAware ADS-B
Mon 07:23:11 PM 33.9478 -118.4283 263° West 158 182 100 -3,474 Descending Los Angeles Center
Mon 07:25:00 PM 33.9425 -118.4081 228° Southwest  Level Estimated

Login

Don't have an account? Register now (free) for customized features, flight alerts, and more!